sensor_id;sensor_type;location;lat;lon;timestamp;P1;durP1;ratioP1;P2;durP2;ratioP2
9222;SDS011;7557;51.698;3.942;2023-08-17T00:02:04;127.78;;;123.43;;
9222;SDS011;7557;51.698;3.942;2023-08-17T00:04:31;117.50;;;113.35;;
9222;SDS011;7557;51.698;3.942;2023-08-17T00:06:59;132.07;;;127.20;;
9222;SDS011;7557;51.698;3.942;2023-08-17T00:09:26;130.43;;;125.90;;
9222;SDS011;7557;51.698;3.942;2023-08-17T00:11:53;111.78;;;107.75;;
9222;SDS011;7557;51.698;3.942;2023-08-17T00:14:21;124.30;;;119.90;;
9222;SDS011;7557;51.698;3.942;2023-08-17T00:16:50;127.47;;;123.15;;
9222;SDS011;7557;51.698;3.942;2023-08-17T00:19:17;123.15;;;118.95;;
9222;SDS011;7557;51.698;3.942;2023-08-17T00:21:45;148.25;;;143.07;;
9222;SDS011;7557;51.698;3.942;2023-08-17T00:24:12;132.13;;;127.57;;
9222;SDS011;7557;51.698;3.942;2023-08-17T00:26:39;143.43;;;138.52;;
9222;SDS011;7557;51.698;3.942;2023-08-17T00:29:06;172.60;;;166.82;;
9222;SDS011;7557;51.698;3.942;2023-08-17T00:31:34;197.73;;;191.00;;
9222;SDS011;7557;51.698;3.942;2023-08-17T00:34:02;215.93;;;208.75;;
9222;SDS011;7557;51.698;3.942;2023-08-17T00:36:30;207.55;;;200.60;;
9222;SDS011;7557;51.698;3.942;2023-08-17T00:38:57;215.80;;;208.43;;
9222;SDS011;7557;51.698;3.942;2023-08-17T00:41:24;288.42;;;277.02;;
9222;SDS011;7557;51.698;3.942;2023-08-17T00:43:53;227.32;;;219.77;;
9222;SDS011;7557;51.698;3.942;2023-08-17T00:49:14;228.52;;;220.77;;
9222;SDS011;7557;51.698;3.942;2023-08-17T00:51:42;252.68;;;243.90;;
9222;SDS011;7557;51.698;3.942;2023-08-17T00:54:09;261.42;;;252.32;;
9222;SDS011;7557;51.698;3.942;2023-08-17T00:56:37;298.63;;;288.13;;
9222;SDS011;7557;51.698;3.942;2023-08-17T00:59:04;321.35;;;309.85;;
9222;SDS011;7557;51.698;3.942;2023-08-17T01:01:32;329.30;;;317.92;;
9222;SDS011;7557;51.698;3.942;2023-08-17T01:03:59;341.77;;;329.63;;
9222;SDS011;7557;51.698;3.942;2023-08-17T01:06:28;317.75;;;306.25;;
9222;SDS011;7557;51.698;3.942;2023-08-17T01:08:55;350.73;;;338.20;;
9222;SDS011;7557;51.698;3.942;2023-08-17T01:11:25;370.08;;;356.50;;
9222;SDS011;7557;51.698;3.942;2023-08-17T01:14:00;345.45;;;333.20;;
9222;SDS011;7557;51.698;3.942;2023-08-17T01:16:33;345.42;;;333.23;;
9222;SDS011;7557;51.698;3.942;2023-08-17T01:19:04;307.58;;;296.50;;
9222;SDS011;7557;51.698;3.942;2023-08-17T01:21:37;343.67;;;331.48;;
9222;SDS011;7557;51.698;3.942;2023-08-17T01:24:10;313.17;;;302.10;;
9222;SDS011;7557;51.698;3.942;2023-08-17T01:26:37;343.35;;;331.10;;
9222;SDS011;7557;51.698;3.942;2023-08-17T01:29:04;350.58;;;337.38;;
9222;SDS011;7557;51.698;3.942;2023-08-17T01:31:34;287.98;;;277.63;;
9222;SDS011;7557;51.698;3.942;2023-08-17T01:34:08;295.83;;;285.42;;
9222;SDS011;7557;51.698;3.942;2023-08-17T01:36:39;322.38;;;311.15;;
9222;SDS011;7557;51.698;3.942;2023-08-17T01:39:14;321.13;;;309.83;;
9222;SDS011;7557;51.698;3.942;2023-08-17T01:41:43;353.45;;;340.95;;
9222;SDS011;7557;51.698;3.942;2023-08-17T01:44:13;353.45;;;340.83;;
9222;SDS011;7557;51.698;3.942;2023-08-17T01:46:40;348.63;;;335.98;;
9222;SDS011;7557;51.698;3.942;2023-08-17T01:49:08;338.83;;;326.80;;
9222;SDS011;7557;51.698;3.942;2023-08-17T01:51:35;365.50;;;352.40;;
9222;SDS011;7557;51.698;3.942;2023-08-17T01:54:02;376.17;;;362.60;;
9222;SDS011;7557;51.698;3.942;2023-08-17T01:56:34;357.67;;;344.88;;
9222;SDS011;7557;51.698;3.942;2023-08-17T01:59:04;384.08;;;370.02;;
9222;SDS011;7557;51.698;3.942;2023-08-17T02:01:31;335.13;;;323.25;;
9222;SDS011;7557;51.698;3.942;2023-08-17T02:03:59;338.50;;;326.38;;
9222;SDS011;7557;51.698;3.942;2023-08-17T02:06:27;378.45;;;364.52;;
9222;SDS011;7557;51.698;3.942;2023-08-17T02:08:55;358.38;;;345.42;;
9222;SDS011;7557;51.698;3.942;2023-08-17T02:11:22;335.73;;;323.52;;
9222;SDS011;7557;51.698;3.942;2023-08-17T02:13:50;321.85;;;310.10;;
9222;SDS011;7557;51.698;3.942;2023-08-17T02:16:17;310.02;;;299.08;;
9222;SDS011;7557;51.698;3.942;2023-08-17T02:18:45;313.67;;;302.63;;
9222;SDS011;7557;51.698;3.942;2023-08-17T02:21:12;294.70;;;284.40;;
9222;SDS011;7557;51.698;3.942;2023-08-17T02:23:39;314.45;;;303.23;;
9222;SDS011;7557;51.698;3.942;2023-08-17T02:26:06;342.85;;;330.40;;
9222;SDS011;7557;51.698;3.942;2023-08-17T02:28:33;256.50;;;247.35;;
9222;SDS011;7557;51.698;3.942;2023-08-17T02:31:02;294.70;;;284.67;;
9222;SDS011;7557;51.698;3.942;2023-08-17T02:33:29;293.65;;;283.42;;
9222;SDS011;7557;51.698;3.942;2023-08-17T02:35:57;289.42;;;279.60;;
9222;SDS011;7557;51.698;3.942;2023-08-17T02:38:24;281.45;;;271.80;;
9222;SDS011;7557;51.698;3.942;2023-08-17T02:40:51;278.75;;;269.00;;
9222;SDS011;7557;51.698;3.942;2023-08-17T02:43:18;304.85;;;294.40;;
9222;SDS011;7557;51.698;3.942;2023-08-17T02:45:45;292.08;;;281.67;;
9222;SDS011;7557;51.698;3.942;2023-08-17T02:48:14;278.60;;;269.13;;
9222;SDS011;7557;51.698;3.942;2023-08-17T02:50:41;274.30;;;264.48;;
9222;SDS011;7557;51.698;3.942;2023-08-17T02:53:08;240.75;;;232.68;;
9222;SDS011;7557;51.698;3.942;2023-08-17T02:55:35;260.95;;;252.02;;
9222;SDS011;7557;51.698;3.942;2023-08-17T02:58:03;284.42;;;274.73;;
9222;SDS011;7557;51.698;3.942;2023-08-17T03:00:30;261.02;;;252.18;;
9222;SDS011;7557;51.698;3.942;2023-08-17T03:02:57;274.23;;;264.92;;
9222;SDS011;7557;51.698;3.942;2023-08-17T03:05:26;284.83;;;275.13;;
9222;SDS011;7557;51.698;3.942;2023-08-17T03:07:53;286.48;;;276.80;;
9222;SDS011;7557;51.698;3.942;2023-08-17T03:10:20;271.77;;;262.20;;
9222;SDS011;7557;51.698;3.942;2023-08-17T03:12:50;259.27;;;250.30;;
9222;SDS011;7557;51.698;3.942;2023-08-17T03:15:17;257.35;;;248.55;;
9222;SDS011;7557;51.698;3.942;2023-08-17T03:17:44;252.27;;;243.70;;
9222;SDS011;7557;51.698;3.942;2023-08-17T03:20:11;247.50;;;239.07;;
9222;SDS011;7557;51.698;3.942;2023-08-17T03:22:40;247.68;;;239.10;;
9222;SDS011;7557;51.698;3.942;2023-08-17T03:25:09;210.50;;;203.23;;
9222;SDS011;7557;51.698;3.942;2023-08-17T03:27:37;282.40;;;272.35;;
9222;SDS011;7557;51.698;3.942;2023-08-17T03:30:04;255.15;;;246.38;;
9222;SDS011;7557;51.698;3.942;2023-08-17T03:32:32;266.10;;;256.90;;
9222;SDS011;7557;51.698;3.942;2023-08-17T03:35:00;225.35;;;217.77;;
9222;SDS011;7557;51.698;3.942;2023-08-17T03:37:27;265.23;;;256.20;;
9222;SDS011;7557;51.698;3.942;2023-08-17T03:39:56;223.55;;;216.00;;
9222;SDS011;7557;51.698;3.942;2023-08-17T03:42:25;233.25;;;224.82;;
9222;SDS011;7557;51.698;3.942;2023-08-17T03:44:53;199.63;;;192.70;;
9222;SDS011;7557;51.698;3.942;2023-08-17T03:47:20;222.13;;;214.35;;
9222;SDS011;7557;51.698;3.942;2023-08-17T03:49:48;251.65;;;242.85;;
9222;SDS011;7557;51.698;3.942;2023-08-17T03:52:15;211.40;;;203.98;;
9222;SDS011;7557;51.698;3.942;2023-08-17T03:54:42;242.63;;;234.27;;
9222;SDS011;7557;51.698;3.942;2023-08-17T03:57:11;255.38;;;246.30;;
9222;SDS011;7557;51.698;3.942;2023-08-17T03:59:39;252.13;;;243.43;;
9222;SDS011;7557;51.698;3.942;2023-08-17T04:02:07;392.17;;;375.90;;
9222;SDS011;7557;51.698;3.942;2023-08-17T04:04:35;242.13;;;234.13;;
9222;SDS011;7557;51.698;3.942;2023-08-17T04:07:02;228.50;;;220.85;;
9222;SDS011;7557;51.698;3.942;2023-08-17T04:09:33;236.10;;;228.00;;
9222;SDS011;7557;51.698;3.942;2023-08-17T04:12:01;211.00;;;203.77;;
9222;SDS011;7557;51.698;3.942;2023-08-17T04:14:31;240.43;;;232.13;;
9222;SDS011;7557;51.698;3.942;2023-08-17T04:16:59;220.02;;;212.27;;
9222;SDS011;7557;51.698;3.942;2023-08-17T04:19:26;225.30;;;217.45;;
9222;SDS011;7557;51.698;3.942;2023-08-17T04:21:54;209.38;;;202.20;;
9222;SDS011;7557;51.698;3.942;2023-08-17T04:24:21;334.27;;;321.05;;
9222;SDS011;7557;51.698;3.942;2023-08-17T04:26:48;208.48;;;201.18;;
9222;SDS011;7557;51.698;3.942;2023-08-17T04:29:16;253.60;;;244.63;;
9222;SDS011;7557;51.698;3.942;2023-08-17T04:31:45;224.90;;;217.13;;
9222;SDS011;7557;51.698;3.942;2023-08-17T04:34:12;231.52;;;223.88;;
9222;SDS011;7557;51.698;3.942;2023-08-17T04:36:40;231.63;;;223.75;;
9222;SDS011;7557;51.698;3.942;2023-08-17T04:39:07;246.70;;;238.48;;
9222;SDS011;7557;51.698;3.942;2023-08-17T04:41:35;236.63;;;228.38;;
9222;SDS011;7557;51.698;3.942;2023-08-17T04:44:02;229.15;;;221.38;;
9222;SDS011;7557;51.698;3.942;2023-08-17T04:46:30;247.40;;;238.90;;
9222;SDS011;7557;51.698;3.942;2023-08-17T04:48:59;233.48;;;225.35;;
9222;SDS011;7557;51.698;3.942;2023-08-17T04:51:27;207.15;;;200.13;;
9222;SDS011;7557;51.698;3.942;2023-08-17T04:53:54;270.42;;;261.17;;
9222;SDS011;7557;51.698;3.942;2023-08-17T04:56:21;221.45;;;214.07;;
9222;SDS011;7557;51.698;3.942;2023-08-17T04:58:49;267.25;;;258.23;;
9222;SDS011;7557;51.698;3.942;2023-08-17T05:01:16;256.02;;;247.20;;
9222;SDS011;7557;51.698;3.942;2023-08-17T05:03:45;270.65;;;261.20;;
9222;SDS011;7557;51.698;3.942;2023-08-17T05:06:14;274.38;;;264.90;;
9222;SDS011;7557;51.698;3.942;2023-08-17T05:08:42;294.20;;;284.05;;
9222;SDS011;7557;51.698;3.942;2023-08-17T05:11:10;268.25;;;259.17;;
9222;SDS011;7557;51.698;3.942;2023-08-17T05:13:37;242.00;;;233.60;;
9222;SDS011;7557;51.698;3.942;2023-08-17T05:16:05;274.35;;;264.63;;
9222;SDS011;7557;51.698;3.942;2023-08-17T05:18:32;252.30;;;243.50;;
9222;SDS011;7557;51.698;3.942;2023-08-17T05:20:59;283.60;;;273.45;;
9222;SDS011;7557;51.698;3.942;2023-08-17T05:23:28;291.75;;;281.75;;
9222;SDS011;7557;51.698;3.942;2023-08-17T05:25:56;305.90;;;294.98;;
9222;SDS011;7557;51.698;3.942;2023-08-17T05:28:23;279.30;;;269.67;;
9222;SDS011;7557;51.698;3.942;2023-08-17T05:30:50;314.10;;;303.08;;
9222;SDS011;7557;51.698;3.942;2023-08-17T05:33:18;305.80;;;295.38;;
9222;SDS011;7557;51.698;3.942;2023-08-17T05:35:46;297.38;;;286.90;;
9222;SDS011;7557;51.698;3.942;2023-08-17T05:38:13;288.55;;;278.60;;
9222;SDS011;7557;51.698;3.942;2023-08-17T05:40:42;310.92;;;300.25;;
9222;SDS011;7557;51.698;3.942;2023-08-17T05:43:12;319.00;;;307.83;;
9222;SDS011;7557;51.698;3.942;2023-08-17T05:45:40;262.35;;;253.13;;
9222;SDS011;7557;51.698;3.942;2023-08-17T05:48:07;290.35;;;280.48;;
9222;SDS011;7557;51.698;3.942;2023-08-17T05:50:35;288.90;;;278.90;;
9222;SDS011;7557;51.698;3.942;2023-08-17T05:53:02;292.60;;;282.45;;
9222;SDS011;7557;51.698;3.942;2023-08-17T05:55:30;311.25;;;300.42;;
9222;SDS011;7557;51.698;3.942;2023-08-17T05:57:59;287.00;;;276.85;;
9222;SDS011;7557;51.698;3.942;2023-08-17T06:00:27;311.50;;;300.67;;
9222;SDS011;7557;51.698;3.942;2023-08-17T06:02:55;273.42;;;263.90;;
9222;SDS011;7557;51.698;3.942;2023-08-17T06:05:26;228.20;;;219.93;;
9222;SDS011;7557;51.698;3.942;2023-08-17T06:07:54;183.15;;;177.02;;
9222;SDS011;7557;51.698;3.942;2023-08-17T06:10:21;234.10;;;225.32;;
9222;SDS011;7557;51.698;3.942;2023-08-17T06:12:51;170.13;;;164.32;;
9222;SDS011;7557;51.698;3.942;2023-08-17T06:15:20;158.73;;;153.07;;
9222;SDS011;7557;51.698;3.942;2023-08-17T06:17:47;149.73;;;144.63;;
9222;SDS011;7557;51.698;3.942;2023-08-17T06:20:15;173.57;;;167.65;;
9222;SDS011;7557;51.698;3.942;2023-08-17T06:22:43;154.70;;;149.55;;
9222;SDS011;7557;51.698;3.942;2023-08-17T06:25:10;244.15;;;235.43;;
9222;SDS011;7557;51.698;3.942;2023-08-17T06:27:38;154.77;;;149.25;;
9222;SDS011;7557;51.698;3.942;2023-08-17T06:30:08;156.95;;;151.68;;
9222;SDS011;7557;51.698;3.942;2023-08-17T06:32:38;138.25;;;133.63;;
9222;SDS011;7557;51.698;3.942;2023-08-17T06:35:06;165.05;;;159.40;;
9222;SDS011;7557;51.698;3.942;2023-08-17T06:37:34;177.48;;;171.35;;
9222;SDS011;7557;51.698;3.942;2023-08-17T06:40:01;145.40;;;140.15;;
9222;SDS011;7557;51.698;3.942;2023-08-17T06:42:30;213.85;;;205.90;;
9222;SDS011;7557;51.698;3.942;2023-08-17T06:44:58;150.70;;;145.60;;
9222;SDS011;7557;51.698;3.942;2023-08-17T06:47:25;168.73;;;163.02;;
9222;SDS011;7557;51.698;3.942;2023-08-17T06:49:54;144.32;;;139.07;;
9222;SDS011;7557;51.698;3.942;2023-08-17T06:52:22;223.52;;;215.32;;
9222;SDS011;7557;51.698;3.942;2023-08-17T06:54:50;157.25;;;151.73;;
9222;SDS011;7557;51.698;3.942;2023-08-17T06:57:17;145.27;;;140.13;;
9222;SDS011;7557;51.698;3.942;2023-08-17T06:59:46;154.23;;;149.13;;
9222;SDS011;7557;51.698;3.942;2023-08-17T07:02:14;132.95;;;128.38;;
9222;SDS011;7557;51.698;3.942;2023-08-17T07:04:41;165.75;;;160.00;;
9222;SDS011;7557;51.698;3.942;2023-08-17T07:07:10;182.60;;;176.35;;
9222;SDS011;7557;51.698;3.942;2023-08-17T07:09:39;148.55;;;143.27;;
9222;SDS011;7557;51.698;3.942;2023-08-17T07:12:06;165.68;;;159.93;;
9222;SDS011;7557;51.698;3.942;2023-08-17T07:14:34;219.05;;;211.40;;
9222;SDS011;7557;51.698;3.942;2023-08-17T07:17:02;196.35;;;189.60;;
9222;SDS011;7557;51.698;3.942;2023-08-17T07:19:29;259.40;;;250.27;;
9222;SDS011;7557;51.698;3.942;2023-08-17T07:21:57;215.45;;;208.02;;
9222;SDS011;7557;51.698;3.942;2023-08-17T07:24:26;184.18;;;177.77;;
9222;SDS011;7557;51.698;3.942;2023-08-17T07:26:53;257.55;;;247.90;;
9222;SDS011;7557;51.698;3.942;2023-08-17T07:29:20;199.85;;;192.38;;
9222;SDS011;7557;51.698;3.942;2023-08-17T07:31:48;159.68;;;153.95;;
9222;SDS011;7557;51.698;3.942;2023-08-17T07:34:15;223.63;;;214.48;;
9222;SDS011;7557;51.698;3.942;2023-08-17T07:36:42;336.25;;;322.40;;
9222;SDS011;7557;51.698;3.942;2023-08-17T07:39:10;186.35;;;179.80;;
9222;SDS011;7557;51.698;3.942;2023-08-17T07:41:39;362.58;;;347.63;;
9222;SDS011;7557;51.698;3.942;2023-08-17T07:44:06;136.02;;;131.32;;
9222;SDS011;7557;51.698;3.942;2023-08-17T07:46:34;170.13;;;164.15;;
9222;SDS011;7557;51.698;3.942;2023-08-17T07:49:01;150.32;;;145.15;;
9222;SDS011;7557;51.698;3.942;2023-08-17T07:51:28;141.93;;;137.13;;
9222;SDS011;7557;51.698;3.942;2023-08-17T07:53:59;190.90;;;184.20;;
9222;SDS011;7557;51.698;3.942;2023-08-17T07:56:26;144.27;;;139.25;;
9222;SDS011;7557;51.698;3.942;2023-08-17T07:58:55;245.10;;;236.20;;
9222;SDS011;7557;51.698;3.942;2023-08-17T08:01:22;166.75;;;160.73;;
9222;SDS011;7557;51.698;3.942;2023-08-17T08:03:50;161.52;;;156.00;;
9222;SDS011;7557;51.698;3.942;2023-08-17T08:06:17;156.88;;;151.27;;
9222;SDS011;7557;51.698;3.942;2023-08-17T08:08:46;210.23;;;202.77;;
9222;SDS011;7557;51.698;3.942;2023-08-17T08:11:13;276.23;;;266.58;;
9222;SDS011;7557;51.698;3.942;2023-08-17T08:13:40;305.98;;;294.50;;
9222;SDS011;7557;51.698;3.942;2023-08-17T08:16:09;249.70;;;241.32;;
9222;SDS011;7557;51.698;3.942;2023-08-17T08:18:37;222.00;;;214.52;;
9222;SDS011;7557;51.698;3.942;2023-08-17T08:21:04;310.85;;;299.48;;
9222;SDS011;7557;51.698;3.942;2023-08-17T08:23:31;317.65;;;305.50;;
9222;SDS011;7557;51.698;3.942;2023-08-17T08:25:58;381.77;;;366.58;;
9222;SDS011;7557;51.698;3.942;2023-08-17T08:28:25;273.83;;;264.08;;
9222;SDS011;7557;51.698;3.942;2023-08-17T08:30:55;276.55;;;266.65;;
9222;SDS011;7557;51.698;3.942;2023-08-17T08:33:29;198.98;;;191.90;;
9222;SDS011;7557;51.698;3.942;2023-08-17T08:35:58;205.68;;;198.02;;
9222;SDS011;7557;51.698;3.942;2023-08-17T08:38:25;201.43;;;194.02;;
9222;SDS011;7557;51.698;3.942;2023-08-17T08:40:53;289.65;;;279.20;;
9222;SDS011;7557;51.698;3.942;2023-08-17T08:43:20;173.15;;;166.90;;
9222;SDS011;7557;51.698;3.942;2023-08-17T08:45:47;244.85;;;236.18;;
9222;SDS011;7557;51.698;3.942;2023-08-17T08:48:16;179.23;;;173.00;;
9222;SDS011;7557;51.698;3.942;2023-08-17T08:50:47;190.55;;;184.10;;
9222;SDS011;7557;51.698;3.942;2023-08-17T08:53:17;219.98;;;212.45;;
9222;SDS011;7557;51.698;3.942;2023-08-17T08:55:52;490.33;;;460.63;;
9222;SDS011;7557;51.698;3.942;2023-08-17T08:58:24;234.13;;;225.98;;
9222;SDS011;7557;51.698;3.942;2023-08-17T09:00:52;253.52;;;244.63;;
9222;SDS011;7557;51.698;3.942;2023-08-17T09:03:20;313.60;;;301.70;;
9222;SDS011;7557;51.698;3.942;2023-08-17T09:05:49;213.50;;;205.82;;
9222;SDS011;7557;51.698;3.942;2023-08-17T09:08:21;273.52;;;264.15;;
9222;SDS011;7557;51.698;3.942;2023-08-17T09:10:49;274.58;;;264.90;;
9222;SDS011;7557;51.698;3.942;2023-08-17T09:13:17;372.13;;;355.90;;
9222;SDS011;7557;51.698;3.942;2023-08-17T09:15:44;345.58;;;332.10;;
9222;SDS011;7557;51.698;3.942;2023-08-17T09:18:12;279.48;;;269.58;;
9222;SDS011;7557;51.698;3.942;2023-08-17T09:20:40;315.17;;;304.05;;
9222;SDS011;7557;51.698;3.942;2023-08-17T09:23:12;314.23;;;303.10;;
9222;SDS011;7557;51.698;3.942;2023-08-17T09:25:42;451.45;;;431.33;;
9222;SDS011;7557;51.698;3.942;2023-08-17T09:28:11;353.42;;;340.08;;
9222;SDS011;7557;51.698;3.942;2023-08-17T09:30:50;326.63;;;314.80;;
9222;SDS011;7557;51.698;3.942;2023-08-17T09:33:19;394.50;;;376.48;;
9222;SDS011;7557;51.698;3.942;2023-08-17T09:35:47;388.33;;;373.75;;
9222;SDS011;7557;51.698;3.942;2023-08-17T09:38:17;326.10;;;313.85;;
9222;SDS011;7557;51.698;3.942;2023-08-17T09:40:45;425.45;;;405.67;;
9222;SDS011;7557;51.698;3.942;2023-08-17T09:43:13;523.80;;;485.88;;
9222;SDS011;7557;51.698;3.942;2023-08-17T09:45:42;381.48;;;366.63;;
9222;SDS011;7557;51.698;3.942;2023-08-17T09:48:14;370.13;;;356.42;;
9222;SDS011;7557;51.698;3.942;2023-08-17T09:50:42;340.10;;;327.38;;
9222;SDS011;7557;51.698;3.942;2023-08-17T09:53:12;382.63;;;368.83;;
9222;SDS011;7557;51.698;3.942;2023-08-17T09:55:42;417.98;;;401.00;;
9222;SDS011;7557;51.698;3.942;2023-08-17T09:58:10;357.92;;;344.67;;
9222;SDS011;7557;51.698;3.942;2023-08-17T10:00:40;472.80;;;451.65;;
9222;SDS011;7557;51.698;3.942;2023-08-17T10:03:12;356.00;;;342.23;;
9222;SDS011;7557;51.698;3.942;2023-08-17T10:05:42;394.95;;;379.77;;
9222;SDS011;7557;51.698;3.942;2023-08-17T10:08:11;363.95;;;350.52;;
9222;SDS011;7557;51.698;3.942;2023-08-17T10:10:40;232.50;;;223.52;;
9222;SDS011;7557;51.698;3.942;2023-08-17T10:13:11;357.02;;;344.05;;
9222;SDS011;7557;51.698;3.942;2023-08-17T10:15:44;276.77;;;265.45;;
9222;SDS011;7557;51.698;3.942;2023-08-17T10:18:21;433.58;;;413.88;;
9222;SDS011;7557;51.698;3.942;2023-08-17T10:20:57;472.60;;;448.40;;
9222;SDS011;7557;51.698;3.942;2023-08-17T10:23:30;332.42;;;320.10;;
9222;SDS011;7557;51.698;3.942;2023-08-17T10:26:00;341.02;;;328.75;;
9222;SDS011;7557;51.698;3.942;2023-08-17T10:28:28;278.48;;;268.30;;
9222;SDS011;7557;51.698;3.942;2023-08-17T10:30:58;364.48;;;350.20;;
9222;SDS011;7557;51.698;3.942;2023-08-17T10:33:26;409.13;;;393.40;;
9222;SDS011;7557;51.698;3.942;2023-08-17T10:35:55;356.08;;;343.02;;
9222;SDS011;7557;51.698;3.942;2023-08-17T10:38:23;381.30;;;367.33;;
9222;SDS011;7557;51.698;3.942;2023-08-17T10:43:54;510.30;;;482.35;;
9222;SDS011;7557;51.698;3.942;2023-08-17T10:46:31;317.52;;;304.50;;
9222;SDS011;7557;51.698;3.942;2023-08-17T10:49:03;349.55;;;332.02;;
9222;SDS011;7557;51.698;3.942;2023-08-17T10:51:32;351.88;;;338.45;;
9222;SDS011;7557;51.698;3.942;2023-08-17T10:54:01;372.25;;;353.30;;
9222;SDS011;7557;51.698;3.942;2023-08-17T10:56:32;338.50;;;325.58;;
9222;SDS011;7557;51.698;3.942;2023-08-17T10:59:00;331.65;;;318.90;;
9222;SDS011;7557;51.698;3.942;2023-08-17T11:01:32;331.58;;;319.52;;
9222;SDS011;7557;51.698;3.942;2023-08-17T11:04:09;370.73;;;353.60;;
9222;SDS011;7557;51.698;3.942;2023-08-17T11:06:38;353.45;;;337.70;;
9222;SDS011;7557;51.698;3.942;2023-08-17T11:09:06;343.88;;;331.23;;
9222;SDS011;7557;51.698;3.942;2023-08-17T11:11:36;339.90;;;327.45;;
9222;SDS011;7557;51.698;3.942;2023-08-17T11:14:03;388.40;;;371.05;;
9222;SDS011;7557;51.698;3.942;2023-08-17T11:16:30;348.02;;;334.48;;
9222;SDS011;7557;51.698;3.942;2023-08-17T11:18:59;324.70;;;312.50;;
9222;SDS011;7557;51.698;3.942;2023-08-17T11:21:27;374.98;;;358.75;;
9222;SDS011;7557;51.698;3.942;2023-08-17T11:23:57;407.55;;;391.73;;
9222;SDS011;7557;51.698;3.942;2023-08-17T11:26:25;346.45;;;333.23;;
9222;SDS011;7557;51.698;3.942;2023-08-17T11:28:55;391.65;;;377.25;;
9222;SDS011;7557;51.698;3.942;2023-08-17T11:31:23;376.27;;;362.48;;
9222;SDS011;7557;51.698;3.942;2023-08-17T11:33:51;404.77;;;389.63;;
9222;SDS011;7557;51.698;3.942;2023-08-17T11:36:19;371.95;;;358.20;;
9222;SDS011;7557;51.698;3.942;2023-08-17T11:38:48;393.80;;;379.25;;
9222;SDS011;7557;51.698;3.942;2023-08-17T11:41:15;376.05;;;362.25;;
9222;SDS011;7557;51.698;3.942;2023-08-17T11:43:44;389.67;;;372.80;;
9222;SDS011;7557;51.698;3.942;2023-08-17T11:46:14;393.40;;;379.02;;
9222;SDS011;7557;51.698;3.942;2023-08-17T11:48:42;368.02;;;354.98;;
9222;SDS011;7557;51.698;3.942;2023-08-17T11:51:09;370.10;;;356.88;;
9222;SDS011;7557;51.698;3.942;2023-08-17T11:53:39;361.92;;;348.35;;
9222;SDS011;7557;51.698;3.942;2023-08-17T11:56:06;381.38;;;366.90;;
9222;SDS011;7557;51.698;3.942;2023-08-17T11:58:40;393.35;;;377.63;;
9222;SDS011;7557;51.698;3.942;2023-08-17T12:01:09;373.65;;;358.88;;
9222;SDS011;7557;51.698;3.942;2023-08-17T12:03:42;425.75;;;405.65;;
9222;SDS011;7557;51.698;3.942;2023-08-17T12:06:10;379.92;;;365.58;;
9222;SDS011;7557;51.698;3.942;2023-08-17T12:08:41;354.27;;;340.10;;
9222;SDS011;7557;51.698;3.942;2023-08-17T12:11:10;311.40;;;297.23;;
9222;SDS011;7557;51.698;3.942;2023-08-17T12:13:37;424.95;;;405.33;;
9222;SDS011;7557;51.698;3.942;2023-08-17T12:16:05;390.88;;;372.17;;
9222;SDS011;7557;51.698;3.942;2023-08-17T12:18:33;374.85;;;358.88;;
9222;SDS011;7557;51.698;3.942;2023-08-17T12:21:03;359.02;;;342.20;;
9222;SDS011;7557;51.698;3.942;2023-08-17T12:23:32;397.90;;;381.40;;
9222;SDS011;7557;51.698;3.942;2023-08-17T12:26:00;339.38;;;319.80;;
9222;SDS011;7557;51.698;3.942;2023-08-17T12:28:28;352.52;;;339.55;;
9222;SDS011;7557;51.698;3.942;2023-08-17T12:30:59;349.67;;;336.90;;
9222;SDS011;7557;51.698;3.942;2023-08-17T12:33:27;303.30;;;291.92;;
9222;SDS011;7557;51.698;3.942;2023-08-17T12:35:55;365.00;;;351.63;;
9222;SDS011;7557;51.698;3.942;2023-08-17T12:38:25;329.17;;;317.20;;
9222;SDS011;7557;51.698;3.942;2023-08-17T12:40:52;426.25;;;407.17;;
9222;SDS011;7557;51.698;3.942;2023-08-17T12:43:20;340.63;;;327.05;;
9222;SDS011;7557;51.698;3.942;2023-08-17T12:45:47;343.52;;;330.30;;
9222;SDS011;7557;51.698;3.942;2023-08-17T12:48:15;337.90;;;324.52;;
9222;SDS011;7557;51.698;3.942;2023-08-17T12:50:42;311.00;;;296.95;;
9222;SDS011;7557;51.698;3.942;2023-08-17T12:53:09;313.85;;;302.25;;
9222;SDS011;7557;51.698;3.942;2023-08-17T12:55:38;334.00;;;321.50;;
9222;SDS011;7557;51.698;3.942;2023-08-17T12:58:07;352.88;;;340.08;;
9222;SDS011;7557;51.698;3.942;2023-08-17T13:00:35;345.30;;;331.13;;
9222;SDS011;7557;51.698;3.942;2023-08-17T13:03:03;340.95;;;328.15;;
9222;SDS011;7557;51.698;3.942;2023-08-17T13:05:31;320.50;;;308.60;;
9222;SDS011;7557;51.698;3.942;2023-08-17T13:07:59;310.35;;;298.70;;
9222;SDS011;7557;51.698;3.942;2023-08-17T13:10:27;388.33;;;372.67;;
9222;SDS011;7557;51.698;3.942;2023-08-17T13:12:56;392.85;;;376.67;;
9222;SDS011;7557;51.698;3.942;2023-08-17T13:15:24;410.02;;;393.17;;
9222;SDS011;7557;51.698;3.942;2023-08-17T13:17:52;340.13;;;327.48;;
9222;SDS011;7557;51.698;3.942;2023-08-17T13:20:20;344.08;;;331.85;;
9222;SDS011;7557;51.698;3.942;2023-08-17T13:22:47;367.65;;;353.88;;
9222;SDS011;7557;51.698;3.942;2023-08-17T13:25:15;341.45;;;328.88;;
9222;SDS011;7557;51.698;3.942;2023-08-17T13:27:42;394.25;;;378.52;;
9222;SDS011;7557;51.698;3.942;2023-08-17T13:30:11;348.98;;;335.67;;
9222;SDS011;7557;51.698;3.942;2023-08-17T13:32:39;374.02;;;359.92;;
9222;SDS011;7557;51.698;3.942;2023-08-17T13:35:07;371.30;;;357.33;;
9222;SDS011;7557;51.698;3.942;2023-08-17T13:37:36;394.58;;;379.05;;
9222;SDS011;7557;51.698;3.942;2023-08-17T13:40:04;382.05;;;366.90;;
9222;SDS011;7557;51.698;3.942;2023-08-17T13:42:32;404.95;;;389.13;;
9222;SDS011;7557;51.698;3.942;2023-08-17T13:45:01;404.90;;;389.88;;
9222;SDS011;7557;51.698;3.942;2023-08-17T13:47:30;402.58;;;387.13;;
9222;SDS011;7557;51.698;3.942;2023-08-17T13:49:57;452.25;;;434.05;;
9222;SDS011;7557;51.698;3.942;2023-08-17T13:52:25;515.45;;;493.98;;
9222;SDS011;7557;51.698;3.942;2023-08-17T13:54:52;519.92;;;498.45;;
9222;SDS011;7557;51.698;3.942;2023-08-17T13:57:20;459.15;;;441.00;;
9222;SDS011;7557;51.698;3.942;2023-08-17T13:59:47;457.60;;;439.83;;
9222;SDS011;7557;51.698;3.942;2023-08-17T14:02:15;477.02;;;457.67;;
9222;SDS011;7557;51.698;3.942;2023-08-17T14:04:44;459.42;;;441.20;;
9222;SDS011;7557;51.698;3.942;2023-08-17T14:07:11;481.23;;;460.88;;
9222;SDS011;7557;51.698;3.942;2023-08-17T14:09:39;490.60;;;470.95;;
9222;SDS011;7557;51.698;3.942;2023-08-17T14:12:06;458.35;;;440.35;;
9222;SDS011;7557;51.698;3.942;2023-08-17T14:14:35;452.60;;;434.85;;
9222;SDS011;7557;51.698;3.942;2023-08-17T14:17:02;433.25;;;415.05;;
9222;SDS011;7557;51.698;3.942;2023-08-17T14:19:30;480.08;;;460.88;;
9222;SDS011;7557;51.698;3.942;2023-08-17T14:21:59;401.20;;;385.48;;
9222;SDS011;7557;51.698;3.942;2023-08-17T14:24:27;388.75;;;372.65;;
9222;SDS011;7557;51.698;3.942;2023-08-17T14:26:54;462.27;;;442.23;;
9222;SDS011;7557;51.698;3.942;2023-08-17T14:29:23;445.98;;;422.58;;
9222;SDS011;7557;51.698;3.942;2023-08-17T14:31:50;493.40;;;473.27;;
9222;SDS011;7557;51.698;3.942;2023-08-17T14:34:18;432.15;;;414.55;;